createdAt,value
2023-02-21T00:00:23.151Z,23.98
2023-02-21T00:01:01.721Z,23.98
2023-02-21T00:01:40.613Z,23.98
2023-02-21T00:02:20.796Z,24.01
2023-02-21T00:03:01.815Z,24.01
2023-02-21T00:03:41.476Z,24.03
2023-02-21T00:04:21.248Z,24.00
2023-02-21T00:05:00.742Z,24.02
2023-02-21T00:05:40.454Z,24.03
2023-02-21T00:06:20.192Z,24.05
2023-02-21T00:06:59.147Z,24.04
2023-02-21T00:07:38.963Z,24.05
2023-02-21T00:08:18.235Z,24.03
2023-02-21T00:08:58.073Z,24.00
2023-02-21T00:09:37.849Z,23.99
2023-02-21T00:10:17.629Z,24.05
2023-02-21T00:10:57.261Z,24.04
2023-02-21T00:11:36.373Z,24.00
2023-02-21T00:12:14.833Z,24.00
2023-02-21T00:12:54.954Z,24.00
2023-02-21T00:13:34.686Z,23.99
2023-02-21T00:14:14.337Z,24.00
2023-02-21T00:14:53.967Z,24.01
2023-02-21T00:15:35.262Z,24.04
2023-02-21T00:16:13.560Z,24.01
2023-02-21T00:16:52.069Z,24.00
2023-02-21T00:17:30.642Z,24.01
2023-02-21T00:18:10.380Z,23.98
2023-02-21T00:18:49.636Z,23.99
2023-02-21T00:19:28.906Z,23.99
2023-02-21T00:20:08.866Z,23.99
2023-02-21T00:20:48.802Z,23.98
2023-02-21T00:21:27.956Z,23.98
2023-02-21T00:22:07.406Z,23.97
2023-02-21T00:22:46.589Z,24.01
2023-02-21T00:23:26.247Z,23.99
2023-02-21T00:24:05.386Z,23.97
2023-02-21T00:24:46.163Z,23.99
2023-02-21T00:25:25.954Z,23.99
2023-02-21T00:26:05.510Z,23.99
2023-02-21T00:26:45.176Z,24.04
2023-02-21T00:27:24.282Z,24.01
2023-02-21T00:28:03.112Z,24.01
2023-02-21T00:28:43.044Z,24.04
2023-02-21T00:29:24.041Z,24.04
2023-02-21T00:30:04.847Z,24.05
2023-02-21T00:30:44.028Z,24.04
2023-02-21T00:31:24.809Z,24.01
2023-02-21T00:32:03.928Z,24.06
2023-02-21T00:32:42.749Z,24.06
2023-02-21T00:33:22.085Z,24.03
2023-02-21T00:34:01.780Z,24.06
2023-02-21T00:34:40.959Z,24.05
2023-02-21T00:35:21.196Z,24.02
2023-02-21T00:36:01.154Z,24.02
2023-02-21T00:36:41.226Z,24.04
2023-02-21T00:37:22.567Z,24.04
2023-02-21T00:38:02.637Z,24.00
2023-02-21T00:38:41.633Z,24.04
2023-02-21T00:39:22.179Z,24.04
2023-02-21T00:40:03.124Z,24.02
2023-02-21T00:40:42.909Z,24.05
2023-02-21T00:41:22.981Z,24.06
2023-02-21T00:42:02.536Z,24.02
2023-02-21T00:42:42.728Z,24.03
2023-02-21T00:43:21.916Z,24.04
2023-02-21T00:44:00.732Z,23.99
2023-02-21T00:44:40.141Z,23.98
2023-02-21T00:45:19.858Z,23.99
2023-02-21T00:45:59.644Z,24.04
2023-02-21T00:46:39.293Z,24.03
2023-02-21T00:47:19.176Z,24.03
2023-02-21T00:47:59.109Z,24.03
2023-02-21T00:48:37.709Z,24.06
2023-02-21T00:49:16.801Z,24.04
2023-02-21T00:49:55.729Z,24.05
2023-02-21T00:50:35.460Z,24.02
2023-02-21T00:51:14.510Z,23.99
2023-02-21T00:51:52.806Z,24.04
2023-02-21T00:52:32.906Z,24.04
2023-02-21T00:53:12.417Z,23.99
2023-02-21T00:53:52.013Z,24.02
2023-02-21T00:54:31.597Z,24.05
2023-02-21T00:55:10.964Z,24.03
2023-02-21T00:55:51.727Z,24.07
2023-02-21T00:56:30.911Z,24.07
2023-02-21T00:57:10.445Z,24.02
2023-02-21T00:57:50.092Z,24.01
2023-02-21T00:58:30.157Z,24.01
2023-02-21T00:59:09.625Z,24.00
2023-02-21T00:59:49.722Z,23.99
2023-02-21T01:00:29.451Z,23.98
2023-02-21T01:01:11.636Z,23.99
2023-02-21T01:01:50.727Z,23.98
2023-02-21T01:02:29.524Z,24.02
2023-02-21T01:03:10.157Z,24.00
2023-02-21T01:03:49.792Z,24.02
2023-02-21T01:04:29.911Z,24.02
2023-02-21T01:05:09.375Z,23.99
2023-02-21T01:05:48.461Z,23.99
2023-02-21T01:06:26.868Z,24.01
2023-02-21T01:07:06.000Z,23.99
2023-02-21T01:07:46.745Z,23.98
2023-02-21T01:08:25.694Z,24.01
2023-02-21T01:09:05.390Z,24.02
2023-02-21T01:09:44.491Z,24.05
2023-02-21T01:10:23.394Z,24.03
2023-02-21T01:11:02.633Z,24.07
2023-02-21T01:11:40.912Z,24.05
2023-02-21T01:12:19.604Z,24.02
2023-02-21T01:12:59.027Z,24.05
2023-02-21T01:13:38.874Z,24.04
2023-02-21T01:14:18.348Z,24.03
2023-02-21T01:14:57.091Z,23.99
2023-02-21T01:15:38.168Z,24.07
2023-02-21T01:16:17.181Z,24.02
2023-02-21T01:17:01.957Z,24.07
2023-02-21T01:17:44.938Z,24.05
2023-02-21T01:18:23.493Z,24.07
2023-02-21T01:19:03.036Z,24.03
2023-02-21T01:19:42.115Z,23.98
2023-02-21T01:20:23.104Z,24.02
2023-02-21T01:21:03.215Z,24.02
2023-02-21T01:21:43.634Z,24.02
2023-02-21T01:22:22.826Z,24.04
2023-02-21T01:23:02.214Z,24.02
2023-02-21T01:23:42.153Z,24.00
2023-02-21T01:24:21.713Z,24.01
2023-02-21T01:25:00.819Z,24.01
2023-02-21T01:25:40.792Z,24.01
2023-02-21T01:26:20.573Z,24.04
2023-02-21T01:26:59.769Z,24.03
2023-02-21T01:27:38.743Z,23.99
2023-02-21T01:28:17.294Z,24.01
2023-02-21T01:28:56.992Z,23.99
2023-02-21T01:29:35.529Z,23.93
2023-02-21T01:30:16.574Z,23.99
2023-02-21T01:30:55.644Z,24.00
2023-02-21T01:31:35.301Z,24.02
2023-02-21T01:32:14.837Z,23.99
2023-02-21T01:32:54.204Z,23.99
2023-02-21T01:33:33.676Z,23.99
2023-02-21T01:34:14.465Z,23.99
2023-02-21T01:34:53.504Z,24.03
2023-02-21T01:35:34.359Z,24.04
2023-02-21T01:36:13.876Z,24.03
2023-02-21T01:36:53.016Z,24.02
2023-02-21T01:37:33.338Z,24.02
2023-02-21T01:38:11.730Z,24.04
2023-02-21T01:38:50.570Z,24.02
2023-02-21T01:39:30.565Z,23.99
2023-02-21T01:40:10.593Z,23.98
2023-02-21T01:40:50.127Z,23.99
2023-02-21T01:41:29.954Z,23.97
2023-02-21T01:42:09.599Z,24.01
2023-02-21T01:42:49.425Z,24.02
2023-02-21T01:43:28.938Z,24.02
2023-02-21T01:44:08.677Z,24.00
2023-02-21T01:44:49.355Z,24.03
2023-02-21T01:45:28.983Z,24.04
2023-02-21T01:46:07.748Z,24.00
2023-02-21T01:46:47.459Z,24.01
2023-02-21T01:47:25.442Z,24.03
2023-02-21T01:48:04.540Z,24.01
2023-02-21T01:48:43.939Z,24.02
2023-02-21T01:49:24.697Z,24.00
2023-02-21T01:50:03.528Z,24.04
2023-02-21T01:50:43.525Z,24.01
2023-02-21T01:51:23.542Z,23.99
2023-02-21T01:52:02.746Z,24.02
2023-02-21T01:52:43.100Z,24.05
2023-02-21T01:53:24.136Z,24.05
2023-02-21T01:54:04.764Z,24.03
2023-02-21T01:54:44.433Z,24.02
2023-02-21T01:55:23.464Z,24.02
2023-02-21T01:56:03.439Z,24.03
2023-02-21T01:56:42.568Z,24.03
2023-02-21T01:57:21.905Z,24.02
2023-02-21T01:58:01.670Z,24.00
2023-02-21T01:58:40.823Z,24.02
2023-02-21T01:59:19.274Z,24.02
2023-02-21T01:59:58.818Z,24.01
2023-02-21T02:00:46.021Z,24.04
2023-02-21T02:01:25.731Z,24.02
2023-02-21T02:02:04.899Z,24.01
2023-02-21T02:02:43.434Z,24.03
2023-02-21T02:03:22.547Z,24.01
2023-02-21T02:04:06.802Z,24.03
2023-02-21T02:04:44.363Z,24.05
2023-02-21T02:05:24.602Z,24.02
2023-02-21T02:06:05.241Z,24.04
2023-02-21T02:06:44.947Z,24.11
2023-02-21T02:07:24.049Z,24.09
2023-02-21T02:08:03.009Z,24.09
2023-02-21T02:08:43.047Z,24.09
2023-02-21T02:09:23.912Z,24.12
2023-02-21T02:10:03.457Z,24.09
2023-02-21T02:10:43.326Z,24.12
2023-02-21T02:11:23.113Z,24.08
2023-02-21T02:12:02.680Z,24.09
2023-02-21T02:12:41.930Z,24.07
2023-02-21T02:13:22.059Z,24.03
2023-02-21T02:14:02.897Z,24.08
2023-02-21T02:14:42.559Z,24.09
2023-02-21T02:15:22.204Z,24.04
2023-02-21T02:16:02.220Z,24.02
2023-02-21T02:16:42.244Z,24.03
2023-02-21T02:17:22.673Z,24.04
2023-02-21T02:18:01.535Z,24.07
2023-02-21T02:18:40.503Z,24.03
2023-02-21T02:19:20.142Z,24.02
2023-02-21T02:20:00.619Z,24.07
2023-02-21T02:20:40.129Z,24.03
2023-02-21T02:21:19.391Z,24.07
2023-02-21T02:21:58.882Z,24.07
2023-02-21T02:22:38.464Z,24.03
2023-02-21T02:23:18.360Z,23.98
2023-02-21T02:23:57.184Z,24.04
2023-02-21T02:24:37.012Z,24.04
2023-02-21T02:25:20.843Z,24.01
2023-02-21T02:25:59.034Z,24.05
2023-02-21T02:26:38.478Z,24.07
2023-02-21T02:27:18.244Z,24.04
2023-02-21T02:27:57.913Z,24.07
2023-02-21T02:28:36.876Z,24.08
2023-02-21T02:29:15.800Z,24.07
2023-02-21T02:29:55.715Z,24.04
2023-02-21T02:30:34.821Z,24.03
2023-02-21T02:31:15.544Z,24.04
2023-02-21T02:31:54.632Z,24.04
2023-02-21T02:32:34.444Z,24.07
2023-02-21T02:33:13.395Z,24.07
2023-02-21T02:33:52.112Z,24.08
2023-02-21T02:34:30.613Z,24.08
2023-02-21T02:35:10.589Z,24.11
2023-02-21T02:35:49.731Z,24.09
2023-02-21T02:36:30.178Z,24.09
2023-02-21T02:37:08.972Z,24.02
2023-02-21T02:37:48.451Z,24.03
2023-02-21T02:38:27.171Z,24.06
2023-02-21T02:39:06.583Z,24.03
2023-02-21T02:39:45.243Z,24.05
2023-02-21T02:40:25.003Z,24.07
2023-02-21T02:41:04.433Z,24.08
2023-02-21T02:41:44.026Z,24.08
2023-02-21T02:42:23.574Z,24.05
2023-02-21T02:43:03.627Z,24.09
2023-02-21T02:43:42.886Z,24.11
2023-02-21T02:44:21.744Z,24.06
2023-02-21T02:45:02.612Z,24.01
2023-02-21T02:45:40.834Z,24.01
2023-02-21T02:46:20.574Z,24.01
2023-02-21T02:47:00.344Z,24.06
2023-02-21T02:47:39.621Z,24.08
2023-02-21T02:48:19.198Z,24.07
2023-02-21T02:48:58.961Z,24.05
2023-02-21T02:49:37.930Z,24.08
2023-02-21T02:50:16.958Z,24.03
2023-02-21T02:50:56.457Z,24.01
2023-02-21T02:51:35.741Z,24.04
2023-02-21T02:52:14.864Z,24.04
2023-02-21T02:52:55.679Z,24.03
2023-02-21T02:53:35.298Z,24.05
2023-02-21T02:54:14.795Z,24.09
2023-02-21T02:54:54.606Z,24.06
2023-02-21T02:55:34.029Z,24.08
2023-02-21T02:56:13.951Z,24.09
2023-02-21T02:56:53.337Z,24.10
2023-02-21T02:57:32.721Z,24.07
2023-02-21T02:58:12.473Z,24.09
2023-02-21T02:58:52.707Z,24.06
2023-02-21T02:59:32.832Z,24.09
2023-02-21T03:00:13.284Z,24.04
2023-02-21T03:00:53.054Z,24.06
2023-02-21T03:01:33.021Z,24.06
2023-02-21T03:02:11.757Z,24.06
2023-02-21T03:02:50.810Z,24.07
2023-02-21T03:03:30.105Z,24.08
2023-02-21T03:04:09.904Z,24.09
2023-02-21T03:04:49.390Z,24.05
2023-02-21T03:05:30.399Z,24.08
2023-02-21T03:06:10.221Z,24.09
2023-02-21T03:06:50.898Z,24.08
2023-02-21T03:07:30.292Z,24.09
2023-02-21T03:08:09.355Z,24.09
2023-02-21T03:08:49.449Z,24.09
2023-02-21T03:09:29.856Z,24.08
2023-02-21T03:10:09.565Z,24.08
2023-02-21T03:10:49.627Z,24.07
2023-02-21T03:11:31.118Z,24.08
2023-02-21T03:12:11.009Z,24.04
2023-02-21T03:12:50.209Z,24.05
2023-02-21T03:13:29.965Z,24.09
2023-02-21T03:14:09.864Z,24.08
2023-02-21T03:14:49.608Z,24.09
2023-02-21T03:15:28.653Z,24.02
2023-02-21T03:16:08.798Z,24.01
2023-02-21T03:16:48.612Z,24.01
2023-02-21T03:17:29.063Z,24.02
2023-02-21T03:18:08.239Z,24.06
2023-02-21T03:18:47.510Z,24.07
2023-02-21T03:19:27.287Z,24.04
2023-02-21T03:20:07.056Z,24.09
2023-02-21T03:20:47.222Z,24.04
2023-02-21T03:21:26.843Z,24.06
2023-02-21T03:22:06.131Z,24.08
2023-02-21T03:22:45.188Z,24.05
2023-02-21T03:23:23.550Z,24.06
2023-02-21T03:24:02.737Z,24.07
2023-02-21T03:24:43.575Z,24.09
2023-02-21T03:25:22.588Z,24.09
2023-02-21T03:26:01.633Z,24.09
2023-02-21T03:26:40.847Z,24.12
2023-02-21T03:27:20.553Z,24.07
2023-02-21T03:27:59.882Z,24.10
2023-02-21T03:28:38.102Z,24.11
2023-02-21T03:29:16.810Z,24.08
2023-02-21T03:29:55.426Z,24.14
2023-02-21T03:30:34.503Z,24.09
2023-02-21T03:31:14.477Z,24.08
2023-02-21T03:31:53.916Z,24.12
2023-02-21T03:32:34.470Z,24.09
2023-02-21T03:33:14.536Z,24.13
2023-02-21T03:33:54.871Z,24.11
2023-02-21T03:34:33.831Z,24.12
2023-02-21T03:35:13.801Z,24.14
2023-02-21T03:35:53.577Z,24.08
2023-02-21T03:36:33.442Z,24.13
2023-02-21T03:37:12.866Z,24.13
2023-02-21T03:37:52.921Z,24.14
2023-02-21T03:38:32.901Z,24.09
2023-02-21T03:39:12.132Z,24.09
2023-02-21T03:39:51.357Z,24.10
2023-02-21T03:40:33.196Z,24.09
2023-02-21T03:41:13.200Z,24.10
2023-02-21T03:41:52.475Z,24.12
2023-02-21T03:42:32.114Z,24.14
2023-02-21T03:43:11.087Z,24.12
2023-02-21T03:43:49.900Z,24.10
2023-02-21T03:44:29.065Z,24.13
2023-02-21T03:45:08.162Z,24.11
2023-02-21T03:45:48.021Z,24.10
2023-02-21T03:46:27.831Z,24.11
2023-02-21T03:47:08.615Z,24.10
2023-02-21T03:47:48.624Z,24.12
2023-02-21T03:48:32.334Z,24.09
2023-02-21T03:49:11.070Z,24.14
2023-02-21T03:49:51.366Z,24.14
2023-02-21T03:50:30.603Z,24.11
2023-02-21T03:51:10.991Z,24.17
2023-02-21T03:51:50.768Z,24.16
2023-02-21T03:52:31.139Z,24.15
2023-02-21T03:53:12.088Z,24.16
2023-02-21T03:53:52.241Z,24.14
2023-02-21T03:54:32.355Z,24.17
2023-02-21T03:55:12.769Z,24.14
2023-02-21T03:55:51.769Z,24.13
2023-02-21T03:56:41.469Z,24.13
2023-02-21T03:57:18.716Z,24.16
2023-02-21T03:57:57.683Z,24.17
2023-02-21T03:58:38.405Z,24.17
2023-02-21T03:59:17.113Z,24.19
2023-02-21T03:59:56.077Z,24.16
2023-02-21T04:00:36.448Z,24.13
2023-02-21T04:01:16.486Z,24.08
2023-02-21T04:01:55.234Z,24.11
2023-02-21T04:02:34.861Z,24.10
2023-02-21T04:03:13.939Z,24.11
2023-02-21T04:03:52.711Z,24.14
2023-02-21T04:04:32.487Z,24.13
2023-02-21T04:05:11.906Z,24.14
2023-02-21T04:05:51.491Z,24.09
2023-02-21T04:06:31.091Z,24.11
2023-02-21T04:07:10.934Z,24.13
2023-02-21T04:07:50.682Z,24.12
2023-02-21T04:08:29.797Z,24.13
2023-02-21T04:09:08.750Z,24.13
2023-02-21T04:09:48.525Z,24.11
2023-02-21T04:10:28.039Z,24.09
2023-02-21T04:11:07.899Z,24.09
2023-02-21T04:11:46.874Z,24.09
2023-02-21T04:12:27.001Z,24.06
2023-02-21T04:13:06.388Z,24.04
2023-02-21T04:13:46.804Z,24.07
2023-02-21T04:14:25.577Z,24.07
2023-02-21T04:15:05.276Z,24.05
2023-02-21T04:15:43.990Z,24.08
2023-02-21T04:16:25.096Z,24.07
2023-02-21T04:17:05.169Z,24.10
2023-02-21T04:17:45.094Z,24.11
2023-02-21T04:18:26.060Z,24.09
2023-02-21T04:19:05.447Z,24.10
2023-02-21T04:19:45.115Z,24.09
2023-02-21T04:20:25.259Z,24.09
2023-02-21T04:21:04.588Z,24.07
2023-02-21T04:21:44.267Z,24.07
2023-02-21T04:22:23.583Z,24.07
2023-02-21T04:23:03.799Z,24.08
2023-02-21T04:23:41.607Z,24.13
2023-02-21T04:24:19.884Z,24.08
2023-02-21T04:24:58.470Z,24.07
2023-02-21T04:25:38.268Z,24.10
2023-02-21T04:26:17.384Z,24.11
2023-02-21T04:26:56.577Z,24.07
2023-02-21T04:27:36.201Z,24.07
2023-02-21T04:28:15.856Z,24.09
2023-02-21T04:28:54.492Z,24.05
2023-02-21T04:29:33.668Z,24.07
2023-02-21T04:30:13.411Z,24.08
2023-02-21T04:30:52.395Z,24.08
2023-02-21T04:31:31.382Z,24.07
2023-02-21T04:32:11.147Z,24.08
2023-02-21T04:32:50.479Z,24.08
2023-02-21T04:33:33.522Z,24.09
2023-02-21T04:34:13.569Z,24.07
2023-02-21T04:34:52.585Z,24.08
2023-02-21T04:35:32.389Z,24.09
2023-02-21T04:36:11.816Z,24.05
2023-02-21T04:36:52.776Z,24.07
2023-02-21T04:37:32.652Z,24.08
2023-02-21T04:38:12.317Z,24.09
2023-02-21T04:38:51.552Z,24.07
2023-02-21T04:39:30.629Z,24.09
2023-02-21T04:40:10.816Z,24.06
2023-02-21T04:40:51.854Z,24.05
2023-02-21T04:41:32.563Z,24.03
2023-02-21T04:42:12.646Z,24.04
2023-02-21T04:42:52.902Z,24.03
2023-02-21T04:43:33.756Z,24.06
2023-02-21T04:44:12.991Z,24.04
2023-02-21T04:45:00.143Z,24.02
2023-02-21T04:45:47.743Z,24.05
2023-02-21T04:46:28.053Z,24.07
2023-02-21T04:47:09.001Z,24.08
2023-02-21T04:47:48.102Z,24.07
2023-02-21T04:48:27.194Z,24.07
2023-02-21T04:49:07.329Z,24.06
2023-02-21T04:49:46.101Z,24.07
2023-02-21T04:50:24.915Z,24.10
2023-02-21T04:51:15.009Z,24.10
2023-02-21T04:51:53.007Z,24.07
2023-02-21T04:52:32.542Z,24.08
2023-02-21T04:53:12.908Z,24.11
2023-02-21T04:53:51.645Z,24.11
2023-02-21T04:54:30.610Z,24.11
2023-02-21T04:55:10.986Z,24.07
2023-02-21T04:55:50.661Z,24.12
2023-02-21T04:56:30.322Z,24.09
2023-02-21T04:57:10.088Z,24.08
2023-02-21T04:57:49.958Z,24.09
2023-02-21T04:58:36.438Z,24.13
2023-02-21T04:59:20.119Z,24.08
2023-02-21T04:59:59.107Z,24.08
2023-02-21T05:00:47.187Z,24.08
2023-02-21T05:01:27.186Z,24.10
2023-02-21T05:02:06.453Z,24.07
2023-02-21T05:02:45.447Z,24.08
2023-02-21T05:03:24.783Z,24.08
2023-02-21T05:04:04.496Z,24.11
2023-02-21T05:04:43.274Z,24.11
2023-02-21T05:05:22.198Z,24.07
2023-02-21T05:06:03.161Z,24.10
2023-02-21T05:06:42.516Z,24.08
2023-02-21T05:07:22.082Z,24.08
2023-02-21T05:08:01.874Z,24.09
2023-02-21T05:08:40.328Z,24.09
2023-02-21T05:09:19.180Z,24.10
2023-02-21T05:09:59.376Z,24.07
2023-02-21T05:10:45.384Z,24.09
2023-02-21T05:11:23.475Z,24.11
2023-02-21T05:12:02.854Z,24.11
2023-02-21T05:12:42.335Z,24.13
2023-02-21T05:13:21.484Z,24.12
2023-02-21T05:14:00.427Z,24.07
2023-02-21T05:14:39.647Z,24.13
2023-02-21T05:15:18.645Z,24.08
2023-02-21T05:15:57.867Z,24.11
2023-02-21T05:16:38.200Z,24.12
2023-02-21T05:17:17.044Z,24.12
2023-02-21T05:17:56.436Z,24.12
2023-02-21T05:18:37.792Z,24.14
2023-02-21T05:19:16.876Z,24.11
2023-02-21T05:19:55.625Z,24.15
2023-02-21T05:20:36.987Z,24.14
2023-02-21T05:21:16.826Z,24.08
2023-02-21T05:21:55.962Z,24.12
2023-02-21T05:22:35.733Z,24.11
2023-02-21T05:23:14.635Z,24.09
2023-02-21T05:23:53.752Z,24.08
2023-02-21T05:24:32.643Z,24.09
2023-02-21T05:25:11.161Z,24.09
2023-02-21T05:25:49.328Z,24.11
2023-02-21T05:26:28.520Z,24.08
2023-02-21T05:27:07.974Z,24.06
2023-02-21T05:27:46.974Z,24.11
2023-02-21T05:28:26.710Z,24.12
2023-02-21T05:29:06.024Z,24.08
2023-02-21T05:29:45.090Z,24.08
2023-02-21T05:30:24.023Z,24.06
2023-02-21T05:31:04.862Z,24.12
2023-02-21T05:31:44.243Z,24.11
2023-02-21T05:32:23.982Z,24.13
2023-02-21T05:33:03.324Z,24.11
2023-02-21T05:33:42.548Z,24.14
2023-02-21T05:34:22.412Z,24.11
2023-02-21T05:35:00.838Z,24.08
2023-02-21T05:35:40.243Z,24.11
2023-02-21T05:36:21.171Z,24.08
2023-02-21T05:37:00.816Z,24.11
2023-02-21T05:37:41.095Z,24.09
2023-02-21T05:38:21.806Z,24.07
2023-02-21T05:39:02.327Z,24.08
2023-02-21T05:39:43.448Z,24.09
2023-02-21T05:40:22.902Z,24.12
2023-02-21T05:41:03.187Z,24.12
2023-02-21T05:41:44.177Z,24.09
2023-02-21T05:42:24.076Z,24.12
2023-02-21T05:43:03.982Z,24.13
2023-02-21T05:43:43.316Z,24.14
2023-02-21T05:44:23.675Z,24.13
2023-02-21T05:45:05.588Z,24.12
2023-02-21T05:45:46.955Z,24.15
2023-02-21T05:46:25.781Z,24.12
2023-02-21T05:47:05.154Z,24.07
2023-02-21T05:47:45.334Z,24.10
2023-02-21T05:48:25.559Z,24.08
2023-02-21T05:49:06.946Z,24.08
2023-02-21T05:49:46.186Z,24.09
2023-02-21T05:50:26.416Z,24.08
2023-02-21T05:51:05.280Z,24.09
2023-02-21T05:51:44.251Z,24.09
2023-02-21T05:52:23.174Z,24.14
2023-02-21T05:53:02.687Z,24.12
2023-02-21T05:53:43.351Z,24.09
2023-02-21T05:54:23.208Z,24.09
2023-02-21T05:55:01.673Z,24.09
2023-02-21T05:55:40.852Z,24.07
2023-02-21T05:56:19.086Z,24.10
2023-02-21T05:56:57.872Z,24.10
2023-02-21T05:57:37.777Z,24.11
2023-02-21T05:58:17.239Z,24.12
2023-02-21T05:58:56.911Z,24.09
2023-02-21T05:59:36.296Z,24.08
2023-02-21T06:00:16.655Z,24.11
2023-02-21T06:00:56.636Z,24.09
2023-02-21T06:01:35.896Z,24.11
2023-02-21T06:02:15.151Z,24.12
2023-02-21T06:02:54.971Z,24.12
2023-02-21T06:03:33.597Z,24.13
2023-02-21T06:04:12.932Z,24.08
2023-02-21T06:04:52.942Z,24.08
2023-02-21T06:05:33.631Z,24.07
2023-02-21T06:06:13.669Z,24.11
2023-02-21T06:06:53.020Z,24.13
2023-02-21T06:07:32.264Z,24.14
2023-02-21T06:08:13.921Z,24.11
2023-02-21T06:08:52.170Z,24.16
2023-02-21T06:09:33.075Z,24.13
2023-02-21T06:10:13.111Z,24.13
2023-02-21T06:10:53.194Z,24.11
2023-02-21T06:11:34.457Z,24.08
2023-02-21T06:12:13.785Z,24.10
2023-02-21T06:12:53.166Z,24.10
2023-02-21T06:13:34.387Z,24.06
2023-02-21T06:14:14.474Z,24.13
2023-02-21T06:14:55.375Z,24.14
2023-02-21T06:15:35.971Z,24.15
2023-02-21T06:16:16.761Z,24.11
2023-02-21T06:16:56.552Z,24.12
2023-02-21T06:17:35.884Z,24.12
2023-02-21T06:18:14.990Z,24.07
2023-02-21T06:18:54.021Z,24.11
2023-02-21T06:19:33.634Z,24.10
2023-02-21T06:20:13.327Z,24.11
2023-02-21T06:20:53.401Z,24.07
2023-02-21T06:21:33.264Z,24.08
2023-02-21T06:22:13.150Z,24.14
2023-02-21T06:22:51.987Z,24.12
2023-02-21T06:23:30.682Z,24.11
2023-02-21T06:24:09.823Z,24.13
2023-02-21T06:24:49.657Z,24.12
2023-02-21T06:25:29.202Z,24.10
2023-02-21T06:26:08.493Z,24.08
2023-02-21T06:26:47.744Z,24.10
2023-02-21T06:27:27.764Z,24.14
2023-02-21T06:28:07.157Z,24.13
2023-02-21T06:28:46.123Z,24.11
2023-02-21T06:29:26.077Z,24.09
2023-02-21T06:30:05.578Z,24.06
2023-02-21T06:30:46.368Z,24.13
2023-02-21T06:31:25.657Z,24.09
2023-02-21T06:32:06.111Z,24.09
2023-02-21T06:32:45.640Z,24.08
2023-02-21T06:33:25.067Z,24.07
2023-02-21T06:34:03.886Z,24.11
2023-02-21T06:34:43.935Z,24.09
2023-02-21T06:35:23.053Z,24.14
2023-02-21T06:36:02.738Z,24.13
2023-02-21T06:36:42.160Z,24.12
2023-02-21T06:37:22.928Z,24.12
2023-02-21T06:38:02.058Z,24.12
2023-02-21T06:38:42.344Z,24.09
2023-02-21T06:39:21.335Z,24.07
2023-02-21T06:40:01.323Z,24.08
2023-02-21T06:40:40.745Z,24.08
2023-02-21T06:41:20.962Z,24.07
2023-02-21T06:42:00.248Z,24.07
2023-02-21T06:42:40.211Z,24.10
2023-02-21T06:43:20.090Z,24.07
2023-02-21T06:43:59.236Z,24.08
2023-02-21T06:44:38.328Z,24.13
2023-02-21T06:45:17.310Z,24.08
2023-02-21T06:45:56.607Z,24.07
2023-02-21T06:46:36.348Z,24.10
2023-02-21T06:47:16.358Z,24.07
2023-02-21T06:47:56.376Z,24.11
2023-02-21T06:48:36.331Z,24.09
2023-02-21T06:49:16.265Z,24.09
2023-02-21T06:49:55.923Z,24.11
2023-02-21T06:50:34.855Z,24.09
2023-02-21T06:51:15.182Z,24.10
2023-02-21T06:51:54.763Z,24.12
2023-02-21T06:52:34.639Z,24.10
2023-02-21T06:53:14.166Z,24.11
2023-02-21T06:53:53.315Z,24.11
2023-02-21T06:54:33.376Z,24.12
2023-02-21T06:55:12.477Z,24.09
2023-02-21T06:55:52.027Z,24.07
2023-02-21T06:56:31.537Z,24.08
2023-02-21T06:57:12.248Z,24.07
2023-02-21T06:57:52.147Z,24.08
2023-02-21T06:58:31.988Z,24.11
2023-02-21T06:59:12.355Z,24.11
2023-02-21T06:59:53.467Z,24.11
2023-02-21T07:00:32.942Z,24.13
2023-02-21T07:01:12.301Z,24.09
2023-02-21T07:01:48.441Z,24.12
2023-02-21T07:02:28.318Z,24.10
2023-02-21T07:03:08.721Z,24.10
2023-02-21T07:03:48.170Z,24.13
2023-02-21T07:04:27.922Z,24.11
2023-02-21T07:05:06.900Z,24.12
2023-02-21T07:05:45.592Z,24.11
2023-02-21T07:06:24.479Z,24.12
2023-02-21T07:07:04.068Z,24.10
2023-02-21T07:07:43.772Z,24.07
2023-02-21T07:08:22.926Z,24.06
2023-02-21T07:09:02.192Z,24.07
2023-02-21T07:09:41.302Z,24.09
2023-02-21T07:10:19.338Z,24.08
2023-02-21T07:10:58.021Z,24.09
2023-02-21T07:11:36.512Z,24.11
2023-02-21T07:12:15.686Z,24.08
2023-02-21T07:12:55.783Z,24.11
2023-02-21T07:13:35.880Z,24.10
2023-02-21T07:14:16.861Z,24.11
2023-02-21T07:14:56.807Z,24.11
2023-02-21T07:15:36.896Z,24.13
2023-02-21T07:16:16.302Z,24.08
2023-02-21T07:16:57.050Z,24.11
2023-02-21T07:17:36.833Z,24.09
2023-02-21T07:18:16.567Z,24.07
2023-02-21T07:18:56.325Z,24.11
2023-02-21T07:19:36.025Z,24.09
2023-02-21T07:20:16.189Z,24.09
2023-02-21T07:20:56.188Z,24.06
2023-02-21T07:21:33.626Z,24.11
2023-02-21T07:22:13.632Z,24.13
2023-02-21T07:22:53.047Z,24.09
2023-02-21T07:23:32.338Z,24.11
2023-02-21T07:24:11.893Z,24.12
2023-02-21T07:24:52.445Z,24.12
2023-02-21T07:25:31.290Z,24.12
2023-02-21T07:26:10.959Z,24.11
2023-02-21T07:26:50.048Z,24.11
2023-02-21T07:27:30.104Z,24.13
2023-02-21T07:28:10.933Z,24.13
2023-02-21T07:28:50.629Z,24.13
2023-02-21T07:29:30.358Z,24.09
2023-02-21T07:30:10.152Z,24.08
2023-02-21T07:30:50.920Z,24.09
2023-02-21T07:31:29.291Z,24.11
2023-02-21T07:32:07.888Z,24.09
2023-02-21T07:33:25.703Z,24.05
2023-02-21T07:34:05.287Z,24.05
2023-02-21T07:34:46.308Z,24.06
2023-02-21T07:35:25.619Z,24.08
2023-02-21T07:36:04.839Z,24.08
2023-02-21T07:36:45.051Z,24.06
2023-02-21T07:37:23.762Z,24.09
2023-02-21T07:38:03.635Z,24.13
2023-02-21T07:38:42.999Z,24.10
2023-02-21T07:39:23.509Z,24.13
2023-02-21T07:40:02.867Z,24.14
2023-02-21T07:40:41.541Z,24.11
2023-02-21T07:41:19.704Z,24.08
2023-02-21T07:41:59.593Z,24.05
2023-02-21T07:42:38.831Z,24.08
2023-02-21T07:43:20.027Z,24.06
2023-02-21T07:44:00.936Z,24.11
2023-02-21T07:44:40.738Z,24.08
2023-02-21T07:45:21.903Z,24.13
2023-02-21T07:46:00.444Z,24.12
2023-02-21T07:46:39.412Z,24.13
2023-02-21T07:47:19.372Z,24.16
2023-02-21T07:47:59.954Z,24.10
2023-02-21T07:48:39.391Z,24.10
2023-02-21T07:49:20.138Z,24.13
2023-02-21T07:50:00.130Z,24.16
2023-02-21T07:50:40.204Z,24.15
2023-02-21T07:51:19.302Z,24.14
2023-02-21T07:51:59.485Z,24.11
2023-02-21T07:52:40.017Z,24.10
2023-02-21T07:53:19.801Z,24.11
2023-02-21T07:54:00.572Z,24.11
2023-02-21T07:54:40.550Z,24.13
2023-02-21T07:55:20.466Z,24.11
2023-02-21T07:55:59.261Z,24.09
2023-02-21T07:56:38.700Z,24.06
2023-02-21T07:57:19.910Z,24.08
2023-02-21T07:57:59.596Z,24.08
2023-02-21T07:58:39.343Z,24.10
2023-02-21T07:59:17.985Z,24.12
2023-02-21T07:59:57.504Z,24.08
2023-02-21T08:00:36.822Z,24.11
2023-02-21T08:01:15.611Z,24.09
2023-02-21T08:01:54.405Z,24.10
2023-02-21T08:02:33.794Z,24.11
2023-02-21T08:03:13.172Z,24.12
2023-02-21T08:03:54.121Z,24.11
2023-02-21T08:04:33.703Z,24.09
2023-02-21T08:05:14.332Z,24.12
2023-02-21T08:05:52.437Z,24.13
2023-02-21T08:06:31.334Z,24.12
2023-02-21T08:07:10.267Z,24.07
2023-02-21T08:07:50.285Z,24.11
2023-02-21T08:08:29.756Z,24.12
2023-02-21T08:09:09.420Z,24.12
2023-02-21T08:09:48.552Z,24.14
2023-02-21T08:10:27.993Z,24.11
2023-02-21T08:11:06.849Z,24.13
2023-02-21T08:11:47.273Z,24.13
2023-02-21T08:12:26.453Z,24.15
2023-02-21T08:13:07.564Z,24.12
2023-02-21T08:13:47.297Z,24.14
2023-02-21T08:14:26.885Z,24.08
2023-02-21T08:15:07.020Z,24.09
2023-02-21T08:15:47.000Z,24.07
2023-02-21T08:16:26.999Z,24.12
2023-02-21T08:17:05.932Z,24.10
2023-02-21T08:17:45.980Z,24.08
2023-02-21T08:18:25.609Z,24.09
2023-02-21T08:19:05.106Z,24.04
2023-02-21T08:19:44.068Z,24.08
2023-02-21T08:20:23.714Z,24.11
2023-02-21T08:21:01.599Z,24.10
2023-02-21T08:21:40.855Z,24.09
2023-02-21T08:22:20.706Z,24.09
2023-02-21T08:23:01.664Z,24.10
2023-02-21T08:23:41.762Z,24.08
2023-02-21T08:24:22.620Z,24.07
2023-02-21T08:25:02.692Z,24.07
2023-02-21T08:25:42.826Z,24.08
2023-02-21T08:26:21.872Z,24.07
2023-02-21T08:27:01.833Z,24.07
2023-02-21T08:27:41.789Z,24.07
2023-02-21T08:28:21.391Z,24.14
2023-02-21T08:29:02.169Z,24.12
2023-02-21T08:29:41.685Z,24.09
2023-02-21T08:30:21.692Z,24.09
2023-02-21T08:31:01.194Z,24.09
2023-02-21T08:31:40.664Z,24.08
2023-02-21T08:32:21.607Z,24.09